createdAt,value
2022-12-27T00:00:53.655Z,1.60
2022-12-27T00:03:15.322Z,2.23
2022-12-27T00:05:36.836Z,2.20
2022-12-27T00:07:58.298Z,2.00
2022-12-27T00:10:19.762Z,2.53
2022-12-27T00:12:41.189Z,2.63
2022-12-27T00:15:04.233Z,2.30
2022-12-27T00:17:25.739Z,2.27
2022-12-27T00:19:47.190Z,2.00
2022-12-27T00:22:08.613Z,2.70
2022-12-27T00:24:30.048Z,2.07
2022-12-27T00:26:51.502Z,1.90
2022-12-27T00:29:13.425Z,2.00
2022-12-27T00:31:34.978Z,2.20
2022-12-27T00:33:58.731Z,2.10
2022-12-27T00:36:22.843Z,1.70
2022-12-27T00:38:44.543Z,2.50
2022-12-27T00:41:06.863Z,2.47
2022-12-27T00:43:28.742Z,2.30
2022-12-27T00:45:50.403Z,2.40
2022-12-27T00:48:12.443Z,2.27
2022-12-27T00:50:33.982Z,2.20
2022-12-27T00:52:55.450Z,2.13
2022-12-27T00:55:16.933Z,2.27
2022-12-27T00:57:38.378Z,2.53
2022-12-27T01:00:03.405Z,2.50
2022-12-27T01:02:28.658Z,2.23
2022-12-27T01:04:50.210Z,2.30
2022-12-27T01:07:11.653Z,2.40
2022-12-27T01:09:33.141Z,2.37
2022-12-27T01:11:54.603Z,2.53
2022-12-27T01:14:16.071Z,1.93
2022-12-27T01:16:38.530Z,1.60
2022-12-27T01:19:00.394Z,2.70
2022-12-27T01:21:24.744Z,1.90
2022-12-27T01:23:46.854Z,2.53
2022-12-27T01:26:12.439Z,2.20
2022-12-27T01:28:35.056Z,1.90
2022-12-27T01:30:56.690Z,2.50
2022-12-27T01:33:18.146Z,1.90
2022-12-27T01:35:39.588Z,2.57
2022-12-27T01:38:01.020Z,2.03
2022-12-27T01:40:22.479Z,2.47
2022-12-27T01:42:52.902Z,1.90
2022-12-27T01:45:23.224Z,2.10
2022-12-27T01:47:50.525Z,1.97
2022-12-27T01:50:24.736Z,2.00
2022-12-27T01:52:56.076Z,2.10
2022-12-27T01:55:35.181Z,1.90
2022-12-27T01:58:21.487Z,2.07
2022-12-27T02:00:45.304Z,1.50
2022-12-27T02:03:07.459Z,1.73
2022-12-27T02:05:29.185Z,2.40
2022-12-27T02:08:01.907Z,2.00
2022-12-27T02:10:24.450Z,2.10
2022-12-27T02:12:45.912Z,2.20
2022-12-27T02:15:07.834Z,2.40
2022-12-27T02:17:32.348Z,2.20
2022-12-27T02:20:03.030Z,2.30
2022-12-27T02:23:01.299Z,2.83
2022-12-27T02:25:49.627Z,2.17
2022-12-27T02:28:48.480Z,2.07
2022-12-27T02:31:41.548Z,2.10
2022-12-27T02:34:07.648Z,2.63
2022-12-27T02:36:33.436Z,2.40
2022-12-27T02:38:59.335Z,2.37
2022-12-27T02:41:39.732Z,2.60
2022-12-27T02:44:20.166Z,3.23
2022-12-27T02:47:01.001Z,2.07
2022-12-27T02:49:46.977Z,2.33
2022-12-27T02:52:58.887Z,2.03
2022-12-27T02:55:35.721Z,2.07
2022-12-27T02:58:12.997Z,2.10
2022-12-27T03:01:06.825Z,2.37
2022-12-27T03:03:44.846Z,2.30
2022-12-27T03:06:39.953Z,2.00
2022-12-27T03:09:47.536Z,2.03
2022-12-27T03:13:01.886Z,2.07
2022-12-27T03:15:48.353Z,2.20
2022-12-27T03:18:18.290Z,2.27
2022-12-27T03:21:00.972Z,2.20
2022-12-27T03:23:41.217Z,2.43
2022-12-27T03:26:05.653Z,2.73
2022-12-27T03:28:48.074Z,2.70
2022-12-27T03:31:34.888Z,2.50
2022-12-27T03:34:23.044Z,3.10
2022-12-27T03:37:03.479Z,2.67
2022-12-27T03:39:34.628Z,3.20
2022-12-27T03:42:37.630Z,3.20
2022-12-27T03:44:59.135Z,2.63
2022-12-27T03:47:29.721Z,2.67
2022-12-27T03:50:06.690Z,2.80
2022-12-27T03:52:36.320Z,2.97
2022-12-27T03:54:58.833Z,2.77
2022-12-27T03:57:25.727Z,3.10
2022-12-27T03:59:47.704Z,2.77
2022-12-27T04:02:10.000Z,2.87
2022-12-27T04:04:31.658Z,3.27
2022-12-27T04:06:53.096Z,3.00
2022-12-27T04:09:33.041Z,2.80
2022-12-27T04:12:13.016Z,2.97
2022-12-27T04:14:52.807Z,3.07
2022-12-27T04:17:33.158Z,2.90
2022-12-27T04:20:12.912Z,2.70
2022-12-27T04:22:52.879Z,2.83
2022-12-27T04:25:33.090Z,2.83
2022-12-27T04:28:12.935Z,2.83
2022-12-27T04:30:53.150Z,3.03
2022-12-27T04:33:33.459Z,3.20
2022-12-27T04:35:55.018Z,3.00
2022-12-27T04:38:16.448Z,3.60
2022-12-27T04:40:56.656Z,3.40
2022-12-27T04:43:36.582Z,2.60
2022-12-27T04:46:33.556Z,2.60
2022-12-27T04:49:13.935Z,3.00
2022-12-27T04:51:54.153Z,2.70
2022-12-27T04:54:37.901Z,2.43
2022-12-27T04:56:59.347Z,3.07
2022-12-27T04:59:39.501Z,2.63
2022-12-27T05:02:03.650Z,3.70
2022-12-27T05:04:26.170Z,2.77
2022-12-27T05:06:48.009Z,2.93
2022-12-27T05:09:28.308Z,2.87
2022-12-27T05:12:08.587Z,2.73
2022-12-27T05:14:30.057Z,2.50
2022-12-27T05:16:51.465Z,2.53
2022-12-27T05:19:14.684Z,2.03
2022-12-27T05:22:01.407Z,1.87
2022-12-27T05:24:41.439Z,2.57
2022-12-27T05:27:02.926Z,2.27
2022-12-27T05:29:24.381Z,2.20
2022-12-27T05:31:45.885Z,2.27
2022-12-27T05:34:07.478Z,2.37
2022-12-27T05:36:29.013Z,1.93
2022-12-27T05:38:50.935Z,2.27
2022-12-27T05:41:13.069Z,1.87
2022-12-27T05:43:34.993Z,2.70
2022-12-27T05:46:02.363Z,2.10
2022-12-27T05:48:23.875Z,1.83
2022-12-27T05:50:45.465Z,1.90
2022-12-27T05:53:06.876Z,1.70
2022-12-27T05:55:28.344Z,1.60
2022-12-27T05:57:49.785Z,1.97
2022-12-27T06:00:12.212Z,2.13
2022-12-27T06:02:33.797Z,2.47
2022-12-27T06:04:55.373Z,1.97
2022-12-27T06:07:16.833Z,2.10
2022-12-27T06:09:38.292Z,1.77
2022-12-27T06:11:59.717Z,2.50
2022-12-27T06:14:21.183Z,1.93
2022-12-27T06:16:42.661Z,1.77
2022-12-27T06:19:04.272Z,2.20
2022-12-27T06:21:25.796Z,2.13
2022-12-27T06:23:48.256Z,1.67
2022-12-27T06:26:16.796Z,2.17
2022-12-27T06:28:38.434Z,1.90
2022-12-27T06:31:00.924Z,1.93
2022-12-27T06:33:22.347Z,1.70
2022-12-27T06:35:43.800Z,2.00
2022-12-27T06:38:05.236Z,1.90
2022-12-27T06:40:26.714Z,1.87
2022-12-27T06:42:48.151Z,2.23
2022-12-27T06:45:10.177Z,1.73
2022-12-27T06:47:31.686Z,2.10
2022-12-27T06:49:53.128Z,2.43
2022-12-27T06:52:14.594Z,2.10
2022-12-27T06:54:36.070Z,1.73
2022-12-27T06:56:57.599Z,1.90
2022-12-27T06:59:19.061Z,1.70
2022-12-27T07:01:41.924Z,2.13
2022-12-27T07:04:03.584Z,1.73
2022-12-27T07:06:26.928Z,2.07
2022-12-27T07:08:49.514Z,2.93
2022-12-27T07:11:12.580Z,1.90
2022-12-27T07:13:36.004Z,2.00
2022-12-27T07:15:57.500Z,2.07
2022-12-27T07:18:18.980Z,2.20
2022-12-27T07:20:40.443Z,1.87
2022-12-27T07:23:01.983Z,1.73
2022-12-27T07:25:23.432Z,1.93
2022-12-27T07:27:44.906Z,1.70
2022-12-27T07:30:07.118Z,1.57
2022-12-27T07:32:28.589Z,1.80
2022-12-27T07:34:50.124Z,1.63
2022-12-27T07:37:11.597Z,2.23
2022-12-27T07:39:33.091Z,2.20
2022-12-27T07:41:54.516Z,1.97
2022-12-27T07:44:16.078Z,2.00
2022-12-27T07:46:37.654Z,2.17
2022-12-27T07:48:59.912Z,2.47
2022-12-27T07:51:21.598Z,2.53
2022-12-27T07:53:43.373Z,2.47
2022-12-27T07:56:13.048Z,2.73
2022-12-27T07:58:42.284Z,2.67
2022-12-27T08:01:04.664Z,2.17
2022-12-27T08:03:26.228Z,2.20
2022-12-27T08:05:49.515Z,2.13
2022-12-27T08:08:12.433Z,2.20
2022-12-27T08:10:34.146Z,2.37
2022-12-27T08:12:55.598Z,2.57
2022-12-27T08:15:17.150Z,2.10
2022-12-27T08:17:38.608Z,2.20
2022-12-27T08:20:00.076Z,2.30
2022-12-27T08:22:23.597Z,2.30
2022-12-27T08:24:45.212Z,2.20
2022-12-27T08:27:07.279Z,1.80
2022-12-27T08:29:28.838Z,2.17
2022-12-27T08:31:50.309Z,2.30
2022-12-27T08:34:11.737Z,1.60
2022-12-27T08:39:14.612Z,1.90
2022-12-27T08:41:36.043Z,1.30
2022-12-27T08:43:57.482Z,1.40
2022-12-27T08:46:19.627Z,1.93
2022-12-27T08:48:41.323Z,1.60
2022-12-27T08:51:12.930Z,2.10
2022-12-27T08:53:36.329Z,2.00
2022-12-27T08:55:57.795Z,2.97
2022-12-27T08:58:19.234Z,2.13
2022-12-27T09:00:40.701Z,1.90
2022-12-27T09:03:02.189Z,2.10
2022-12-27T09:05:25.342Z,2.37
2022-12-27T09:07:47.536Z,2.03
2022-12-27T09:10:09.394Z,2.07
2022-12-27T09:12:32.443Z,2.00
2022-12-27T09:14:54.313Z,1.97
2022-12-27T09:17:15.782Z,1.60
2022-12-27T09:19:37.259Z,2.37
2022-12-27T09:21:58.722Z,2.70
2022-12-27T09:24:20.320Z,1.83
2022-12-27T09:26:41.862Z,2.00
2022-12-27T09:29:03.531Z,2.37
2022-12-27T09:31:25.911Z,2.40
2022-12-27T09:33:48.000Z,1.90
2022-12-27T09:36:10.824Z,2.43
2022-12-27T09:38:32.514Z,1.77
2022-12-27T09:40:55.972Z,2.43
2022-12-27T09:43:25.367Z,2.00
2022-12-27T09:45:52.285Z,2.23
2022-12-27T09:48:26.320Z,2.40
2022-12-27T09:50:57.235Z,2.80
2022-12-27T09:53:44.488Z,1.90
2022-12-27T09:56:06.823Z,2.33
2022-12-27T09:58:49.846Z,2.20
2022-12-27T10:01:32.777Z,2.07
2022-12-27T10:03:54.581Z,1.97
2022-12-27T10:06:22.851Z,2.17
2022-12-27T10:09:09.060Z,2.60
2022-12-27T10:11:40.067Z,2.10
2022-12-27T10:14:30.869Z,1.70
2022-12-27T10:17:01.141Z,2.37
2022-12-27T10:19:31.612Z,2.53
2022-12-27T10:22:15.872Z,2.30
2022-12-27T10:24:37.276Z,2.50
2022-12-27T10:26:58.750Z,2.27
2022-12-27T10:29:23.821Z,2.40
2022-12-27T10:31:45.817Z,2.07
2022-12-27T10:34:10.862Z,2.27
2022-12-27T10:36:33.824Z,2.77
2022-12-27T10:38:56.813Z,2.20
2022-12-27T10:41:33.558Z,2.40
2022-12-27T10:43:55.548Z,2.40
2022-12-27T10:46:20.964Z,2.47
2022-12-27T10:49:20.131Z,2.30
2022-12-27T10:51:38.115Z,2.67
2022-12-27T10:54:02.849Z,2.23
2022-12-27T10:56:32.873Z,2.10
2022-12-27T10:59:19.104Z,2.30
2022-12-27T11:01:40.726Z,2.10
2022-12-27T11:04:19.768Z,2.17
2022-12-27T11:06:44.107Z,2.10
2022-12-27T11:09:30.211Z,2.40
2022-12-27T11:11:51.831Z,2.77
2022-12-27T11:14:18.986Z,2.07
2022-12-27T11:16:41.116Z,2.10
2022-12-27T11:19:03.845Z,2.23
2022-12-27T11:21:28.166Z,2.37
2022-12-27T11:23:55.409Z,2.53
2022-12-27T11:26:27.633Z,2.20
2022-12-27T11:28:54.466Z,2.60
2022-12-27T11:31:19.476Z,2.50
2022-12-27T11:33:44.831Z,2.33
2022-12-27T11:36:08.980Z,2.00
2022-12-27T11:38:33.265Z,2.40
2022-12-27T11:41:09.746Z,2.67
2022-12-27T11:43:54.554Z,2.47
2022-12-27T11:46:31.232Z,2.97
2022-12-27T11:48:57.339Z,2.40
2022-12-27T11:51:40.553Z,2.70
2022-12-27T11:54:46.847Z,2.00
2022-12-27T11:57:14.349Z,2.40
2022-12-27T11:59:50.745Z,2.37
2022-12-27T12:02:45.497Z,2.57
2022-12-27T12:05:22.500Z,2.60
2022-12-27T12:08:07.139Z,2.30
2022-12-27T12:11:06.558Z,2.47
2022-12-27T12:13:59.072Z,2.50
2022-12-27T12:16:45.381Z,3.17
2022-12-27T12:19:25.204Z,2.83
2022-12-27T12:21:52.018Z,4.70
2022-12-27T12:24:35.303Z,3.03
2022-12-27T12:27:22.223Z,2.70
2022-12-27T12:30:21.145Z,3.27
2022-12-27T12:33:16.686Z,3.40
2022-12-27T12:36:08.584Z,2.47
2022-12-27T12:38:58.582Z,2.90
2022-12-27T12:41:57.689Z,2.50
2022-12-27T12:44:28.069Z,2.30
2022-12-27T12:47:26.414Z,2.20
2022-12-27T12:50:12.872Z,2.67
2022-12-27T12:52:59.116Z,2.17
2022-12-27T12:55:25.689Z,2.03
2022-12-27T12:58:22.417Z,2.57
2022-12-27T13:01:08.860Z,1.80
2022-12-27T13:03:53.200Z,3.00
2022-12-27T13:06:41.400Z,2.37
2022-12-27T13:09:33.933Z,2.63
2022-12-27T13:12:04.376Z,1.90
2022-12-27T13:15:00.876Z,2.40
2022-12-27T13:17:41.601Z,2.60
2022-12-27T13:20:24.779Z,2.20
2022-12-27T13:23:10.279Z,2.00
2022-12-27T13:25:45.823Z,2.43
2022-12-27T13:28:29.371Z,2.77
2022-12-27T13:31:07.062Z,2.80
2022-12-27T13:33:52.721Z,2.30
2022-12-27T13:36:28.840Z,2.50
2022-12-27T13:38:50.233Z,2.40
2022-12-27T13:41:30.231Z,2.00
2022-12-27T13:44:19.230Z,2.50
2022-12-27T13:47:16.014Z,2.80
2022-12-27T13:49:49.370Z,2.97
2022-12-27T13:53:00.333Z,2.50
2022-12-27T13:55:37.591Z,2.60
2022-12-27T13:58:32.844Z,2.53
2022-12-27T14:01:10.187Z,2.50
2022-12-27T14:03:56.169Z,3.07
2022-12-27T14:06:54.052Z,2.17
2022-12-27T14:09:37.815Z,2.67
2022-12-27T14:12:36.501Z,2.60
2022-12-27T14:15:02.532Z,2.40
2022-12-27T14:17:37.757Z,2.63
2022-12-27T14:20:11.458Z,2.47
2022-12-27T14:22:56.043Z,2.20
2022-12-27T14:25:48.332Z,2.03
2022-12-27T14:28:31.336Z,2.33
2022-12-27T14:31:10.864Z,2.90
2022-12-27T14:33:44.242Z,2.70
2022-12-27T14:37:07.555Z,2.07
2022-12-27T14:40:07.953Z,2.07
2022-12-27T14:43:06.341Z,2.33
2022-12-27T14:45:57.007Z,2.90
2022-12-27T14:48:32.912Z,2.27
2022-12-27T14:54:56.406Z,2.60
2022-12-27T14:57:33.842Z,2.50
2022-12-27T15:00:01.317Z,2.67
2022-12-27T15:02:52.073Z,2.20
2022-12-27T15:05:42.361Z,2.57
2022-12-27T15:08:19.258Z,2.10
2022-12-27T15:11:04.889Z,3.13
2022-12-27T15:13:56.719Z,2.60
2022-12-27T15:16:24.287Z,2.70
2022-12-27T15:19:43.282Z,2.97
2022-12-27T15:22:42.698Z,2.47
2022-12-27T15:25:41.474Z,3.00
2022-12-27T15:28:32.301Z,2.60
2022-12-27T15:31:16.087Z,2.43
2022-12-27T15:34:05.378Z,2.80
2022-12-27T15:36:44.797Z,4.87
2022-12-27T15:39:26.805Z,6.00
2022-12-27T15:42:14.334Z,4.23
2022-12-27T15:45:03.392Z,2.57
2022-12-27T15:48:02.460Z,2.67
2022-12-27T15:50:33.846Z,3.07
2022-12-27T15:53:02.453Z,3.10
2022-12-27T15:55:40.272Z,3.00
2022-12-27T15:58:15.408Z,2.40
2022-12-27T16:00:37.610Z,3.23
2022-12-27T16:03:01.604Z,3.13
2022-12-27T16:05:23.145Z,3.13
2022-12-27T16:07:47.020Z,4.73
2022-12-27T16:10:27.320Z,2.67
2022-12-27T16:12:49.809Z,2.70
2022-12-27T16:15:39.066Z,3.60
2022-12-27T16:18:03.221Z,3.27
2022-12-27T16:20:25.422Z,2.83
2022-12-27T16:22:53.309Z,2.87
2022-12-27T16:25:35.640Z,2.83
2022-12-27T16:28:13.509Z,3.03
2022-12-27T16:30:38.488Z,3.27
2022-12-27T16:33:01.061Z,2.90
2022-12-27T16:35:23.140Z,2.67
2022-12-27T16:37:52.882Z,2.80
2022-12-27T16:40:26.662Z,3.47
2022-12-27T16:42:48.039Z,2.80
2022-12-27T16:45:52.108Z,2.80
2022-12-27T16:48:35.552Z,3.63
2022-12-27T16:51:18.910Z,2.70
2022-12-27T16:54:11.519Z,2.87
2022-12-27T16:56:36.130Z,2.80
2022-12-27T16:58:57.872Z,3.00
2022-12-27T17:01:25.492Z,2.93
2022-12-27T17:03:49.333Z,3.00
2022-12-27T17:06:35.312Z,3.90
2022-12-27T17:09:09.117Z,3.00
2022-12-27T17:11:32.271Z,3.00
2022-12-27T17:14:11.979Z,3.23
2022-12-27T17:16:48.199Z,3.53
2022-12-27T17:19:39.119Z,3.07
2022-12-27T17:22:04.553Z,2.83
2022-12-27T17:24:26.234Z,3.20
2022-12-27T17:27:19.722Z,2.73
2022-12-27T17:30:06.954Z,2.70
2022-12-27T17:32:56.597Z,3.23
2022-12-27T17:35:32.070Z,2.70
2022-12-27T17:38:21.290Z,3.47
2022-12-27T17:41:15.354Z,2.90
2022-12-27T17:44:14.556Z,3.43
2022-12-27T17:46:51.194Z,3.20
2022-12-27T17:49:12.820Z,3.57
2022-12-27T17:51:38.548Z,3.77
2022-12-27T17:54:18.807Z,3.63
2022-12-27T17:57:17.359Z,2.90
2022-12-27T17:59:44.587Z,3.50
2022-12-27T18:02:17.056Z,3.60
2022-12-27T18:04:46.248Z,3.40
2022-12-27T18:07:12.860Z,3.60
2022-12-27T18:09:39.635Z,3.40
2022-12-27T18:12:08.258Z,3.80
2022-12-27T18:14:33.246Z,3.37
2022-12-27T18:16:54.848Z,3.13
2022-12-27T18:19:20.359Z,3.10
2022-12-27T18:21:55.056Z,3.50
2022-12-27T18:24:32.715Z,3.30
2022-12-27T18:27:03.307Z,3.20
2022-12-27T18:29:24.843Z,3.63
2022-12-27T18:31:53.002Z,3.00
2022-12-27T18:34:44.131Z,3.63
2022-12-27T18:37:12.626Z,3.27
2022-12-27T18:39:38.834Z,3.37
2022-12-27T18:42:04.448Z,3.33
2022-12-27T18:44:31.809Z,3.67
2022-12-27T18:46:56.567Z,3.70
2022-12-27T18:49:31.823Z,3.37
2022-12-27T18:51:55.095Z,4.07
2022-12-27T18:54:32.315Z,3.37
2022-12-27T18:56:55.695Z,4.03
2022-12-27T18:59:38.202Z,2.90
2022-12-27T19:02:01.857Z,3.97
2022-12-27T19:04:26.817Z,4.10
2022-12-27T19:06:56.561Z,4.20
2022-12-27T19:09:20.088Z,3.60
2022-12-27T19:11:41.947Z,3.80
2022-12-27T19:14:04.973Z,4.13
2022-12-27T19:16:34.070Z,4.47
2022-12-27T19:19:16.556Z,4.03
2022-12-27T19:21:39.635Z,3.90
2022-12-27T19:24:21.974Z,5.67
2022-12-27T19:26:43.448Z,4.50
2022-12-27T19:29:14.839Z,3.90
2022-12-27T19:31:39.731Z,4.40
2022-12-27T19:34:06.693Z,4.23
2022-12-27T19:36:32.292Z,4.47
2022-12-27T19:38:54.872Z,4.00
2022-12-27T19:41:16.367Z,3.50
2022-12-27T19:43:41.798Z,4.03
2022-12-27T19:46:03.445Z,3.47
2022-12-27T19:48:25.021Z,3.30
2022-12-27T19:50:52.628Z,3.20
2022-12-27T19:53:17.613Z,3.27
2022-12-27T19:55:39.128Z,3.57
2022-12-27T19:58:00.571Z,3.40
2022-12-27T20:00:24.244Z,3.60
2022-12-27T20:02:46.692Z,3.40
2022-12-27T20:05:08.829Z,3.70
2022-12-27T20:07:30.603Z,3.13
2022-12-27T20:09:52.401Z,2.73
2022-12-27T20:12:13.895Z,3.20
2022-12-27T20:14:35.362Z,2.97
2022-12-27T20:16:56.792Z,3.30
2022-12-27T20:19:20.175Z,2.90
2022-12-27T20:21:42.292Z,3.20
2022-12-27T20:24:04.042Z,2.90
2022-12-27T20:26:25.784Z,3.07
2022-12-27T20:28:47.794Z,2.90
2022-12-27T20:31:12.584Z,3.20
2022-12-27T20:33:34.134Z,3.93
2022-12-27T20:35:57.382Z,3.20
2022-12-27T20:38:19.224Z,3.43
2022-12-27T20:40:41.151Z,3.97
2022-12-27T20:43:02.566Z,3.90
2022-12-27T20:45:24.287Z,3.10
2022-12-27T20:47:45.797Z,3.60
2022-12-27T20:50:07.903Z,3.37
2022-12-27T20:52:31.367Z,3.13
2022-12-27T20:54:53.007Z,3.40
2022-12-27T20:57:14.609Z,3.67
2022-12-27T20:59:36.103Z,3.33
2022-12-27T21:01:58.849Z,3.10
2022-12-27T21:04:20.473Z,3.30
2022-12-27T21:06:41.937Z,3.23
2022-12-27T21:09:05.341Z,3.77
2022-12-27T21:11:31.164Z,3.50
2022-12-27T21:13:53.060Z,3.13
2022-12-27T21:16:18.307Z,3.43
2022-12-27T21:18:40.234Z,3.33
2022-12-27T21:21:06.343Z,3.70
2022-12-27T21:23:31.418Z,3.03
2022-12-27T21:25:52.976Z,3.30
2022-12-27T21:28:14.414Z,3.00
2022-12-27T21:30:35.872Z,2.57
2022-12-27T21:32:57.332Z,3.27
2022-12-27T21:35:18.817Z,3.83
2022-12-27T21:37:40.254Z,3.67
2022-12-27T21:40:01.727Z,3.30
2022-12-27T21:42:23.162Z,3.23
2022-12-27T21:44:44.626Z,3.10
2022-12-27T21:47:06.336Z,3.17
2022-12-27T21:49:27.872Z,3.20
2022-12-27T21:51:49.776Z,3.10
2022-12-27T21:54:13.722Z,3.17
2022-12-27T21:56:35.377Z,2.60
2022-12-27T21:58:59.342Z,3.10
2022-12-27T22:01:50.328Z,2.90
2022-12-27T22:04:13.439Z,2.40
2022-12-27T22:06:44.833Z,2.73
2022-12-27T22:09:11.337Z,2.80
2022-12-27T22:11:34.721Z,2.23
2022-12-27T22:13:56.502Z,2.30
2022-12-27T22:16:24.393Z,1.97
2022-12-27T22:18:46.786Z,1.87
2022-12-27T22:21:09.855Z,2.13
2022-12-27T22:23:37.143Z,2.33
2022-12-27T22:25:58.794Z,2.13
2022-12-27T22:28:22.045Z,1.97
2022-12-27T22:30:43.539Z,2.60
2022-12-27T22:33:05.909Z,2.20
2022-12-27T22:35:27.362Z,2.43
2022-12-27T22:37:48.819Z,1.97
2022-12-27T22:40:30.773Z,1.63
2022-12-27T22:42:55.396Z,2.30
2022-12-27T22:45:16.933Z,2.23
2022-12-27T22:47:38.411Z,1.83
2022-12-27T22:49:59.884Z,2.00
2022-12-27T22:52:21.372Z,2.27
2022-12-27T22:55:05.252Z,2.33
2022-12-27T22:57:24.223Z,1.97
2022-12-27T22:59:45.719Z,2.57
2022-12-27T23:02:07.270Z,1.90
2022-12-27T23:04:29.333Z,2.17
2022-12-27T23:06:50.884Z,2.07
2022-12-27T23:09:12.421Z,2.00
2022-12-27T23:11:36.917Z,2.40
2022-12-27T23:14:00.959Z,2.03
2022-12-27T23:16:22.961Z,2.50
2022-12-27T23:18:44.486Z,2.20
2022-12-27T23:21:21.800Z,2.03
2022-12-27T23:23:45.809Z,2.60
2022-12-27T23:26:10.122Z,2.20
2022-12-27T23:28:31.683Z,2.20
2022-12-27T23:30:53.180Z,2.30
2022-12-27T23:33:14.780Z,2.10
2022-12-27T23:35:36.515Z,2.17
2022-12-27T23:37:57.951Z,1.90
2022-12-27T23:40:19.502Z,2.60
2022-12-27T23:42:41.017Z,2.33
2022-12-27T23:45:02.468Z,1.57
2022-12-27T23:47:23.886Z,2.50
2022-12-27T23:49:45.363Z,2.53
2022-12-27T23:52:06.807Z,2.17
2022-12-27T23:54:28.436Z,2.10
2022-12-27T23:56:49.876Z,1.70
2022-12-27T23:59:11.437Z,2.57
